createdAt,value
2019-06-08T00:00:15.269Z,100639.28
2019-06-08T00:02:44.121Z,100634.27
2019-06-08T00:05:12.936Z,100627.81
2019-06-08T00:07:41.677Z,100626.72
2019-06-08T00:10:11.117Z,100628.52
2019-06-08T00:12:40.006Z,100630.31
2019-06-08T00:15:09.266Z,100627.20
2019-06-08T00:17:39.258Z,100626.98
2019-06-08T00:20:10.311Z,100635.11
2019-06-08T00:22:40.230Z,100645.30
2019-06-08T00:25:10.684Z,100640.51
2019-06-08T00:27:39.657Z,100650.66
2019-06-08T00:30:09.187Z,100659.39
2019-06-08T00:32:37.840Z,100670.14
2019-06-08T00:35:07.565Z,100675.62
2019-06-08T00:37:37.116Z,100663.56
2019-06-08T00:40:08.059Z,100658.51
2019-06-08T00:42:39.574Z,100658.50
2019-06-08T00:45:09.552Z,100672.98
2019-06-08T00:47:47.660Z,100664.80
2019-06-08T00:50:10.883Z,100674.76
2019-06-08T00:52:39.575Z,100676.08
2019-06-08T00:55:09.567Z,100674.80
2019-06-08T00:57:38.332Z,100691.28
2019-06-08T01:00:11.842Z,100686.49
2019-06-08T01:02:41.044Z,100698.68
2019-06-08T01:05:09.850Z,100708.25
2019-06-08T01:07:38.460Z,100715.44
2019-06-08T01:10:10.324Z,100714.15
2019-06-08T01:12:40.455Z,100718.63
2019-06-08T01:15:12.748Z,100718.05
2019-06-08T01:17:41.518Z,100730.24
2019-06-08T01:20:10.604Z,100734.55
2019-06-08T01:22:39.323Z,100759.20
2019-06-08T01:25:09.615Z,100754.64
2019-06-08T01:27:40.880Z,100763.27
2019-06-08T01:30:10.246Z,100764.85
2019-06-08T01:32:40.467Z,100772.39
2019-06-08T01:35:11.997Z,100769.42
2019-06-08T01:37:40.505Z,100772.56
2019-06-08T01:40:12.814Z,100775.59
2019-06-08T01:42:41.522Z,100774.33
2019-06-08T01:45:12.039Z,100782.48
2019-06-08T01:47:40.689Z,100781.43
2019-06-08T01:50:09.444Z,100785.27
2019-06-08T01:52:39.714Z,100790.18
2019-06-08T01:55:11.203Z,100785.90
2019-06-08T01:57:39.864Z,100792.06
2019-06-08T02:00:29.260Z,100796.16
2019-06-08T02:02:39.621Z,100802.20
2019-06-08T02:05:08.905Z,100807.61
2019-06-08T02:07:40.587Z,100804.24
2019-06-08T02:10:11.423Z,100803.00
2019-06-08T02:12:40.138Z,100801.80
2019-06-08T02:15:09.587Z,100816.33
2019-06-08T02:17:39.695Z,100820.55
2019-06-08T02:20:09.074Z,100824.12
2019-06-08T02:22:37.730Z,100842.23
2019-06-08T02:25:07.326Z,100843.78
2019-06-08T02:27:37.045Z,100868.70
2019-06-08T02:30:14.223Z,100884.20
2019-06-08T02:32:42.954Z,100900.59
2019-06-08T02:35:13.800Z,100907.14
2019-06-08T02:37:42.446Z,100918.53
2019-06-08T02:40:11.392Z,100926.83
2019-06-08T02:42:40.332Z,100931.33
2019-06-08T02:45:12.935Z,100927.94
2019-06-08T02:47:41.576Z,100941.13
2019-06-08T02:50:10.751Z,100941.45
2019-06-08T02:52:40.963Z,100942.62
2019-06-08T02:55:09.932Z,100947.70
2019-06-08T02:57:41.821Z,100952.13
2019-06-08T03:00:12.872Z,100953.28
2019-06-08T03:02:47.234Z,100958.92
2019-06-08T03:05:16.684Z,100952.56
2019-06-08T03:07:47.773Z,100959.20
2019-06-08T03:10:16.813Z,100954.65
2019-06-08T03:12:46.072Z,100962.87
2019-06-08T03:15:17.662Z,100969.97
2019-06-08T03:17:46.278Z,100979.75
2019-06-08T03:20:14.993Z,100973.72
2019-06-08T03:22:44.122Z,100978.56
2019-06-08T03:25:12.960Z,100978.20
2019-06-08T03:27:43.161Z,100966.74
2019-06-08T03:30:19.018Z,100972.45
2019-06-08T03:32:50.612Z,100989.39
2019-06-08T03:35:14.894Z,100993.94
2019-06-08T03:37:44.479Z,100996.26
2019-06-08T03:40:13.706Z,100985.22
2019-06-08T03:42:42.627Z,100976.99
2019-06-08T03:45:11.567Z,100986.57
2019-06-08T03:47:41.824Z,100992.70
2019-06-08T03:50:11.065Z,101006.59
2019-06-08T03:52:40.422Z,101004.59
2019-06-08T03:55:10.059Z,100994.47
2019-06-08T03:57:40.337Z,100985.86
2019-06-08T04:00:13.753Z,100988.53
2019-06-08T04:02:44.159Z,100997.83
2019-06-08T04:05:13.125Z,100987.69
2019-06-08T04:07:42.202Z,100977.58
2019-06-08T04:10:12.098Z,100973.23
2019-06-08T04:12:41.943Z,100976.70
2019-06-08T04:15:11.457Z,100987.02
2019-06-08T04:17:40.074Z,100997.42
2019-06-08T04:20:11.672Z,100998.08
2019-06-08T04:22:44.735Z,100984.68
2019-06-08T04:25:15.364Z,100987.50
2019-06-08T04:27:44.820Z,101016.66
2019-06-08T04:30:14.206Z,101008.12
2019-06-08T04:32:44.735Z,101025.41
2019-06-08T04:35:13.731Z,101027.36
2019-06-08T04:37:43.095Z,101029.63
2019-06-08T04:40:12.793Z,101015.44
2019-06-08T04:42:42.275Z,101026.89
2019-06-08T04:45:11.921Z,101033.55
2019-06-08T04:47:41.493Z,101064.07
2019-06-08T04:50:22.532Z,101068.67
2019-06-08T04:52:42.575Z,101077.70
2019-06-08T04:55:11.587Z,101080.50
2019-06-08T04:57:41.885Z,101092.05
2019-06-08T05:00:12.898Z,101104.16
2019-06-08T05:02:44.046Z,101112.06
2019-06-08T05:05:12.375Z,101102.95
2019-06-08T05:07:43.607Z,101103.60
2019-06-08T05:10:13.738Z,101109.24
2019-06-08T05:12:43.390Z,101112.04
2019-06-08T05:15:12.489Z,101115.44
2019-06-08T05:17:41.421Z,101132.14
2019-06-08T05:20:10.314Z,101127.84
2019-06-08T05:22:41.428Z,101139.08
2019-06-08T05:25:11.396Z,101136.07
2019-06-08T05:27:41.241Z,101132.67
2019-06-08T05:30:10.624Z,101147.70
2019-06-08T05:32:39.501Z,101153.47
2019-06-08T05:35:09.307Z,101163.84
2019-06-08T05:37:39.602Z,101166.08
2019-06-08T05:40:09.542Z,101169.37
2019-06-08T05:42:42.122Z,101173.88
2019-06-08T05:45:11.199Z,101175.00
2019-06-08T05:47:39.849Z,101175.45
2019-06-08T05:50:09.101Z,101175.23
2019-06-08T05:52:39.762Z,101184.23
2019-06-08T05:55:09.590Z,101187.95
2019-06-08T05:57:40.170Z,101186.53
2019-06-08T06:00:11.979Z,101180.39
2019-06-08T06:02:42.158Z,101174.16
2019-06-08T06:05:12.229Z,101182.78
2019-06-08T06:07:40.909Z,101175.66
2019-06-08T06:10:10.063Z,101172.20
2019-06-08T06:12:38.788Z,101179.51
2019-06-08T06:15:08.038Z,101181.34
2019-06-08T06:17:40.923Z,101191.83
2019-06-08T06:20:10.707Z,101197.70
2019-06-08T06:22:42.013Z,101218.97
2019-06-08T06:25:12.144Z,101219.94
2019-06-08T06:27:41.561Z,101224.39
2019-06-08T06:30:12.621Z,101234.50
2019-06-08T06:32:43.901Z,101231.53
2019-06-08T06:35:13.469Z,101227.16
2019-06-08T06:37:43.783Z,101208.38
2019-06-08T06:40:13.783Z,101221.70
2019-06-08T06:42:43.850Z,101219.87
2019-06-08T06:45:13.698Z,101224.55
2019-06-08T06:47:44.177Z,101232.91
2019-06-08T06:50:14.100Z,101226.27
2019-06-08T06:52:44.625Z,101245.02
2019-06-08T06:57:51.567Z,101269.52
2019-06-08T07:00:32.111Z,101283.89
2019-06-08T07:03:02.508Z,101284.90
2019-06-08T07:05:31.557Z,101277.09
2019-06-08T07:08:00.786Z,101278.75
2019-06-08T07:10:30.251Z,101285.80
2019-06-08T07:13:00.023Z,101280.34
2019-06-08T07:15:29.727Z,101276.11
2019-06-08T07:17:58.797Z,101280.17
2019-06-08T07:20:29.428Z,101272.98
2019-06-08T07:22:59.082Z,101280.53
2019-06-08T07:25:31.621Z,101271.00
2019-06-08T07:28:01.453Z,101292.09
2019-06-08T07:30:30.628Z,101285.06
2019-06-08T07:33:00.214Z,101301.11
2019-06-08T07:35:31.419Z,101321.23
2019-06-08T07:38:08.058Z,101332.69
2019-06-08T07:40:39.345Z,101342.45
2019-06-08T07:43:09.168Z,101346.42
2019-06-08T07:45:38.313Z,101337.64
2019-06-08T07:48:10.777Z,101337.85
2019-06-08T07:50:41.448Z,101344.88
2019-06-08T07:53:10.889Z,101354.50
2019-06-08T07:55:45.251Z,101360.93
2019-06-08T07:58:19.047Z,101357.62
2019-06-08T08:00:52.983Z,101357.02
2019-06-08T08:03:22.837Z,101373.95
2019-06-08T08:05:53.568Z,101383.93
2019-06-08T08:08:25.952Z,101380.80
2019-06-08T08:10:56.770Z,101386.30
2019-06-08T08:13:53.248Z,101371.41
2019-06-08T08:16:23.547Z,101373.10
2019-06-08T08:18:59.827Z,101378.27
2019-06-08T08:21:34.877Z,101380.23
2019-06-08T08:26:39.157Z,101372.36
2019-06-08T08:29:18.652Z,101368.35
2019-06-08T08:31:49.112Z,101371.30
2019-06-08T08:34:18.506Z,101370.39
2019-06-08T08:36:50.577Z,101372.86
2019-06-08T08:39:21.010Z,101376.75
2019-06-08T08:41:56.348Z,101377.16
2019-06-08T08:44:22.945Z,101380.58
2019-06-08T08:46:54.706Z,101387.30
2019-06-08T08:49:28.098Z,101372.43
2019-06-08T08:52:01.696Z,101358.94
2019-06-08T08:54:31.240Z,101327.27
2019-06-08T08:57:03.403Z,101319.33
2019-06-08T08:59:32.094Z,101316.62
2019-06-08T09:02:03.085Z,101329.31
2019-06-08T09:04:33.139Z,101324.31
2019-06-08T09:07:06.908Z,101307.05
2019-06-08T09:09:34.809Z,101331.50
2019-06-08T09:12:04.642Z,101361.92
2019-06-08T09:14:34.037Z,101389.39
2019-06-08T09:17:08.277Z,101407.30
2019-06-08T09:19:38.225Z,101405.39
2019-06-08T09:22:08.959Z,101409.42
2019-06-08T09:24:40.842Z,101424.92
2019-06-08T09:27:09.977Z,101415.69
2019-06-08T09:29:38.959Z,101426.83
2019-06-08T09:32:10.586Z,101426.09
2019-06-08T09:34:39.407Z,101417.98
2019-06-08T09:37:09.902Z,101413.55
2019-06-08T09:39:38.881Z,101415.32
2019-06-08T09:42:10.671Z,101407.44
2019-06-08T09:44:39.713Z,101399.72
2019-06-08T09:47:12.551Z,101401.74
2019-06-08T09:49:41.444Z,101406.70
2019-06-08T09:52:10.268Z,101405.72
2019-06-08T09:54:40.526Z,101417.81
2019-06-08T09:57:14.176Z,101438.08
2019-06-08T09:59:42.911Z,101426.06
2019-06-08T10:02:12.997Z,101441.76
2019-06-08T10:04:41.883Z,101449.39
2019-06-08T10:07:10.686Z,101462.05
2019-06-08T10:09:43.116Z,101449.83
2019-06-08T10:12:10.335Z,101456.93
2019-06-08T10:14:40.572Z,101449.57
2019-06-08T10:17:12.519Z,101447.47
2019-06-08T10:19:41.182Z,101430.89
2019-06-08T10:22:09.704Z,101447.16
2019-06-08T10:24:41.665Z,101440.66
2019-06-08T10:27:11.759Z,101432.98
2019-06-08T10:29:40.772Z,101431.00
2019-06-08T10:32:11.691Z,101438.17
2019-06-08T10:34:40.564Z,101422.64
2019-06-08T10:37:13.539Z,101420.06
2019-06-08T10:39:42.631Z,101403.66
2019-06-08T10:42:11.626Z,101396.58
2019-06-08T10:44:40.484Z,101415.86
2019-06-08T10:47:12.402Z,101433.17
2019-06-08T10:49:41.218Z,101437.23
2019-06-08T10:52:12.084Z,101443.33
2019-06-08T10:54:40.390Z,101444.05
2019-06-08T10:57:12.062Z,101449.19
2019-06-08T10:59:40.871Z,101465.00
2019-06-08T11:02:13.856Z,101462.98
2019-06-08T11:04:43.065Z,101462.23
2019-06-08T11:07:15.487Z,101450.30
2019-06-08T11:09:41.154Z,101440.42
2019-06-08T11:12:14.552Z,101437.86
2019-06-08T11:14:40.755Z,101439.94
2019-06-08T11:17:11.178Z,101437.41
2019-06-08T11:19:40.036Z,101427.56
2019-06-08T11:22:13.851Z,101403.45
2019-06-08T11:24:43.176Z,101403.52
2019-06-08T11:27:12.945Z,101399.20
2019-06-08T11:29:41.999Z,101406.31
2019-06-08T11:32:12.454Z,101430.45
2019-06-08T11:34:41.156Z,101428.33
2019-06-08T11:37:13.008Z,101426.50
2019-06-08T11:39:40.738Z,101427.61
2019-06-08T11:42:12.264Z,101423.52
2019-06-08T11:44:39.910Z,101412.25
2019-06-08T11:47:12.240Z,101419.16
2019-06-08T11:49:42.164Z,101417.84
2019-06-08T11:52:11.199Z,101428.70
2019-06-08T11:54:41.152Z,101438.68
2019-06-08T11:57:12.790Z,101422.98
2019-06-08T11:59:42.256Z,101454.49
2019-06-08T12:02:13.904Z,101441.86
2019-06-08T12:04:41.432Z,101438.92
2019-06-08T12:07:12.072Z,101435.78
2019-06-08T12:09:40.492Z,101428.68
2019-06-08T12:12:17.171Z,101424.99
2019-06-08T12:14:40.805Z,101435.67
2019-06-08T12:17:13.541Z,101441.95
2019-06-08T12:19:40.002Z,101437.89
2019-06-08T12:22:10.349Z,101454.47
2019-06-08T12:24:42.769Z,101466.34
2019-06-08T12:27:23.687Z,101448.48
2019-06-08T12:29:41.970Z,101449.39
2019-06-08T12:32:12.433Z,101449.04
2019-06-08T12:34:41.485Z,101457.25
2019-06-08T12:37:14.541Z,101465.95
2019-06-08T12:39:40.454Z,101471.72
2019-06-08T12:42:17.092Z,101475.97
2019-06-08T12:44:43.718Z,101469.97
2019-06-08T12:47:15.899Z,101461.95
2019-06-08T12:49:43.098Z,101460.61
2019-06-08T12:52:12.812Z,101464.47
2019-06-08T12:54:56.410Z,101466.28
2019-06-08T12:57:15.509Z,101454.91
2019-06-08T12:59:45.421Z,101459.34
2019-06-08T13:02:17.476Z,101447.25
2019-06-08T13:04:44.083Z,101451.86
2019-06-08T13:07:13.173Z,101434.11
2019-06-08T13:09:42.030Z,101446.73
2019-06-08T13:12:11.452Z,101441.88
2019-06-08T13:14:40.272Z,101451.66
2019-06-08T13:17:11.871Z,101437.75
2019-06-08T13:19:40.985Z,101436.19
2019-06-08T13:22:10.775Z,101446.20
2019-06-08T13:24:39.553Z,101436.05
2019-06-08T13:27:12.021Z,101436.38
2019-06-08T13:29:40.065Z,101434.78
2019-06-08T13:32:09.823Z,101438.19
2019-06-08T13:34:41.324Z,101444.03
2019-06-08T13:37:10.625Z,101436.42
2019-06-08T13:39:39.861Z,101445.55
2019-06-08T13:42:08.755Z,101445.33
2019-06-08T13:44:37.880Z,101437.37
2019-06-08T13:47:07.614Z,101432.31
2019-06-08T13:49:37.670Z,101449.44
2019-06-08T13:52:09.023Z,101462.22
2019-06-08T13:54:41.122Z,101439.91
2019-06-08T13:57:10.237Z,101441.50
2019-06-08T13:59:40.494Z,101439.43
2019-06-08T14:02:13.504Z,101444.17
2019-06-08T14:04:46.028Z,101445.28
2019-06-08T14:07:15.068Z,101448.09
2019-06-08T14:09:43.497Z,101452.36
2019-06-08T14:12:12.258Z,101461.48
2019-06-08T14:14:40.978Z,101449.67
2019-06-08T14:17:09.898Z,101448.63
2019-06-08T14:19:38.683Z,101445.52
2019-06-08T14:22:10.493Z,101453.44
2019-06-08T14:24:38.096Z,101437.61
2019-06-08T14:27:08.307Z,101439.45
2019-06-08T14:29:39.242Z,101451.25
2019-06-08T14:32:08.057Z,101452.19
2019-06-08T14:34:39.562Z,101462.50
2019-06-08T14:37:09.784Z,101455.41
2019-06-08T14:39:41.579Z,101468.26
2019-06-08T14:42:10.295Z,101450.11
2019-06-08T14:44:42.097Z,101451.57
2019-06-08T14:47:13.765Z,101456.50
2019-06-08T14:49:44.187Z,101455.83
2019-06-08T14:52:13.362Z,101455.77
2019-06-08T14:54:42.057Z,101460.26
2019-06-08T14:57:11.306Z,101471.66
2019-06-08T14:59:39.994Z,101475.79
2019-06-08T15:02:09.511Z,101468.91
2019-06-08T15:04:40.016Z,101466.90
2019-06-08T15:07:12.308Z,101463.59
2019-06-08T15:09:40.920Z,101480.60
2019-06-08T15:12:09.630Z,101474.36
2019-06-08T15:14:41.321Z,101472.09
2019-06-08T15:17:09.928Z,101471.97
2019-06-08T15:19:38.756Z,101478.71
2019-06-08T15:22:11.383Z,101478.98
2019-06-08T15:24:40.094Z,101484.36
2019-06-08T15:27:10.252Z,101481.16
2019-06-08T15:29:40.651Z,101491.84
2019-06-08T15:32:09.854Z,101490.64
2019-06-08T15:34:38.566Z,101485.69
2019-06-08T15:37:09.261Z,101492.77
2019-06-08T15:39:40.623Z,101509.17
2019-06-08T15:42:09.334Z,101501.39
2019-06-08T15:44:39.492Z,101513.59
2019-06-08T15:47:10.049Z,101505.80
2019-06-08T15:52:34.342Z,101495.34
2019-06-08T15:55:03.047Z,101501.09
2019-06-08T15:57:36.606Z,101496.14
2019-06-08T16:00:02.307Z,101500.12
2019-06-08T16:02:31.680Z,101487.70
2019-06-08T16:05:00.658Z,101507.34
2019-06-08T16:07:31.290Z,101494.64
2019-06-08T16:09:59.722Z,101500.17
2019-06-08T16:12:28.466Z,101502.74
2019-06-08T16:14:57.048Z,101501.25
2019-06-08T16:17:27.133Z,101499.70
2019-06-08T16:19:55.918Z,101499.01
2019-06-08T16:22:25.730Z,101505.25
2019-06-08T16:24:54.788Z,101504.75
2019-06-08T16:27:23.512Z,101497.05
2019-06-08T16:29:52.120Z,101504.49
2019-06-08T16:32:21.244Z,101504.87
2019-06-08T16:34:49.969Z,101499.80
2019-06-08T16:37:18.628Z,101505.82
2019-06-08T16:39:47.390Z,101502.68
2019-06-08T16:42:16.105Z,101501.35
2019-06-08T16:44:44.814Z,101505.55
2019-06-08T16:47:13.527Z,101512.44
2019-06-08T16:49:42.239Z,101515.44
2019-06-08T16:52:10.953Z,101524.91
2019-06-08T16:54:39.969Z,101516.03
2019-06-08T16:57:10.550Z,101514.81
2019-06-08T16:59:42.223Z,101518.55
2019-06-08T17:02:11.360Z,101521.06
2019-06-08T17:04:39.967Z,101517.14
2019-06-08T17:07:09.099Z,101519.71
2019-06-08T17:09:37.894Z,101528.78
2019-06-08T17:12:09.295Z,101524.84
2019-06-08T17:14:38.647Z,101522.67
2019-06-08T17:17:10.447Z,101525.27
2019-06-08T17:19:42.036Z,101523.67
2019-06-08T17:22:11.053Z,101528.46
2019-06-08T17:24:40.758Z,101534.89
2019-06-08T17:27:25.261Z,101533.75
2019-06-08T17:29:40.997Z,101529.42
2019-06-08T17:32:09.928Z,101532.31
2019-06-08T17:34:38.636Z,101527.77
2019-06-08T17:37:07.363Z,101538.22
2019-06-08T17:39:36.502Z,101538.97
2019-06-08T17:42:05.229Z,101542.15
2019-06-08T17:44:34.855Z,101547.12
2019-06-08T17:47:04.090Z,101539.83
2019-06-08T17:49:32.798Z,101542.95
2019-06-08T17:52:01.952Z,101546.84
2019-06-08T17:54:30.745Z,101550.16
2019-06-08T17:56:59.347Z,101556.61
2019-06-08T17:59:28.064Z,101552.05
2019-06-08T18:01:56.875Z,101554.23
2019-06-08T18:04:27.991Z,101558.28
2019-06-08T18:06:58.073Z,101558.59
2019-06-08T18:09:28.106Z,101557.38
2019-06-08T18:11:59.268Z,101554.97
2019-06-08T18:14:30.696Z,101567.53
2019-06-08T18:16:57.874Z,101565.85
2019-06-08T18:19:29.403Z,101563.46
2019-06-08T18:22:04.390Z,101558.06
2019-06-08T18:24:29.421Z,101561.80
2019-06-08T18:26:59.058Z,101559.76
2019-06-08T18:29:28.180Z,101572.86
2019-06-08T18:31:58.085Z,101573.52
2019-06-08T18:34:28.480Z,101577.88
2019-06-08T18:36:57.974Z,101578.87
2019-06-08T18:39:28.611Z,101583.60
2019-06-08T18:41:58.879Z,101582.29
2019-06-08T18:44:28.471Z,101588.81
2019-06-08T18:46:57.863Z,101590.84
2019-06-08T18:49:28.749Z,101597.36
2019-06-08T18:51:58.260Z,101599.52
2019-06-08T18:54:27.995Z,101598.95
2019-06-08T18:56:57.121Z,101614.88
2019-06-08T18:59:28.385Z,101610.64
2019-06-08T19:01:56.386Z,101614.85
2019-06-08T19:04:30.038Z,101626.03
2019-06-08T19:06:56.163Z,101626.66
2019-06-08T19:09:25.300Z,101625.94
2019-06-08T19:11:54.121Z,101635.97
2019-06-08T19:14:22.834Z,101646.91
2019-06-08T19:16:54.823Z,101645.09
2019-06-08T19:19:22.113Z,101650.67
2019-06-08T19:21:50.834Z,101653.72
2019-06-08T19:24:19.540Z,101660.77
2019-06-08T19:26:49.052Z,101668.98
2019-06-08T19:29:19.496Z,101673.94
2019-06-08T19:31:51.198Z,101673.09
2019-06-08T19:34:18.917Z,101682.86
2019-06-08T19:36:52.129Z,101687.28
2019-06-08T19:39:18.492Z,101684.73
2019-06-08T19:41:50.426Z,101696.59
2019-06-08T19:44:18.359Z,101696.77
2019-06-08T19:46:52.013Z,101692.95
2019-06-08T19:49:17.567Z,101690.94
2019-06-08T19:51:48.567Z,101697.05
2019-06-08T19:54:18.255Z,101701.17
2019-06-08T19:56:49.359Z,101700.02
2019-06-08T19:59:18.359Z,101704.36
2019-06-08T20:01:51.357Z,101707.79
2019-06-08T20:04:18.212Z,101713.34
2019-06-08T20:06:50.349Z,101715.13
2019-06-08T20:09:18.234Z,101719.02
2019-06-08T20:11:53.387Z,101722.88
2019-06-08T20:14:17.401Z,101717.32
2019-06-08T20:16:49.148Z,101718.92
2019-06-08T20:19:17.609Z,101729.05
2019-06-08T20:21:50.837Z,101729.45
2019-06-08T20:24:18.413Z,101736.06
2019-06-08T20:26:51.760Z,101735.36
2019-06-08T20:29:20.012Z,101731.71
2019-06-08T20:31:50.362Z,101736.14
2019-06-08T20:34:18.925Z,101737.89
2019-06-08T20:36:48.726Z,101741.67
2019-06-08T20:39:21.431Z,101742.95
2019-06-08T20:41:53.009Z,101748.20
2019-06-08T20:44:23.509Z,101747.56
2019-06-08T20:46:53.902Z,101752.44
2019-06-08T20:49:27.701Z,101752.83
2019-06-08T20:51:57.044Z,101756.92
2019-06-08T20:54:27.869Z,101756.16
2019-06-08T20:56:58.013Z,101757.75
2019-06-08T20:59:33.658Z,101762.64
2019-06-08T21:01:59.007Z,101760.17
2019-06-08T21:04:28.714Z,101754.33
2019-06-08T21:06:57.660Z,101755.67
2019-06-08T21:09:27.851Z,101763.82
2019-06-08T21:11:58.696Z,101762.88
2019-06-08T21:14:27.491Z,101763.42
2019-06-08T21:16:58.558Z,101761.54
2019-06-08T21:19:28.138Z,101770.95
2019-06-08T21:21:59.213Z,101769.08
2019-06-08T21:24:28.086Z,101775.91
2019-06-08T21:27:00.779Z,101770.78
2019-06-08T21:29:46.598Z,101773.87
2019-06-08T21:32:01.817Z,101776.30
2019-06-08T21:34:29.585Z,101777.95
2019-06-08T21:37:00.877Z,101775.25
2019-06-08T21:39:29.166Z,101781.59
2019-06-08T21:42:02.608Z,101778.09
2019-06-08T21:44:28.142Z,101784.00
2019-06-08T21:47:00.844Z,101782.19
2019-06-08T21:49:32.740Z,101779.77
2019-06-08T21:52:01.557Z,101786.89
2019-06-08T21:54:30.585Z,101789.42
2019-06-08T21:57:00.938Z,101785.22
2019-06-08T21:59:29.774Z,101787.55
2019-06-08T22:02:01.860Z,101784.52
2019-06-08T22:04:28.965Z,101787.60
2019-06-08T22:06:59.721Z,101785.73
2019-06-08T22:09:28.592Z,101789.55
2019-06-08T22:12:00.768Z,101789.80
2019-06-08T22:14:27.892Z,101787.78
2019-06-08T22:17:00.911Z,101794.33
2019-06-08T22:19:27.624Z,101792.41
2019-06-08T22:21:59.952Z,101794.07
2019-06-08T22:24:27.762Z,101790.31
2019-06-08T22:26:58.636Z,101781.83
2019-06-08T22:29:27.609Z,101790.73
2019-06-08T22:32:17.957Z,101792.81
2019-06-08T22:34:48.889Z,101792.58
2019-06-08T22:37:40.845Z,101790.25
2019-06-08T22:40:10.173Z,101788.59
2019-06-08T22:42:49.357Z,101797.65
2019-06-08T22:45:18.100Z,101794.53
2019-06-08T22:47:47.797Z,101796.96
2019-06-08T22:50:18.563Z,101797.52
2019-06-08T22:52:47.705Z,101797.59
2019-06-08T22:55:18.562Z,101800.73
2019-06-08T22:57:47.898Z,101798.05
2019-06-08T23:00:24.839Z,101799.10
2019-06-08T23:02:54.422Z,101794.77
2019-06-08T23:05:23.368Z,101801.73
2019-06-08T23:08:04.349Z,101802.48
2019-06-08T23:10:31.048Z,101801.86
2019-06-08T23:13:02.312Z,101807.98
2019-06-08T23:15:30.189Z,101810.06
2019-06-08T23:18:00.939Z,101803.09
2019-06-08T23:20:29.723Z,101804.62
2019-06-08T23:23:00.900Z,101804.59
2019-06-08T23:25:28.896Z,101807.52
2019-06-08T23:27:58.201Z,101809.09
2019-06-08T23:30:27.716Z,101808.91
2019-06-08T23:32:57.284Z,101810.85
2019-06-08T23:35:27.579Z,101814.75
2019-06-08T23:37:56.854Z,101809.15
2019-06-08T23:40:27.306Z,101809.27
2019-06-08T23:42:58.232Z,101812.42
2019-06-08T23:45:27.170Z,101810.81
2019-06-08T23:47:58.402Z,101808.83
2019-06-08T23:50:27.275Z,101804.66
2019-06-08T23:52:56.109Z,101808.77
2019-06-08T23:55:24.815Z,101814.14
2019-06-08T23:57:53.438Z,101816.80
